sensor_id;sensor_type;location;lat;lon;timestamp;pressure;altitude;pressure_sealevel;temperature;humidity
47983;BME280;33751;50.816;-1.214;2023-04-10T00:01:57;101484.06;;;25.90;100.00
47983;BME280;33751;50.816;-1.214;2023-04-10T00:04:23;101485.41;;;25.99;100.00
47983;BME280;33751;50.816;-1.214;2023-04-10T00:06:50;101485.73;;;25.74;100.00
47983;BME280;33751;50.816;-1.214;2023-04-10T00:09:16;101486.76;;;25.76;100.00
47983;BME280;33751;50.816;-1.214;2023-04-10T00:11:44;101486.14;;;25.52;100.00
47983;BME280;33751;50.816;-1.214;2023-04-10T00:14:10;101480.31;;;25.47;100.00
47983;BME280;33751;50.816;-1.214;2023-04-10T00:16:37;101475.23;;;25.82;100.00
47983;BME280;33751;50.816;-1.214;2023-04-10T00:19:03;101479.58;;;25.59;100.00
47983;BME280;33751;50.816;-1.214;2023-04-10T00:21:30;101481.14;;;25.59;100.00
47983;BME280;33751;50.816;-1.214;2023-04-10T00:23:56;101476.16;;;25.28;100.00
47983;BME280;33751;50.816;-1.214;2023-04-10T00:26:23;101472.15;;;25.52;100.00
47983;BME280;33751;50.816;-1.214;2023-04-10T00:28:50;101465.33;;;25.72;100.00
47983;BME280;33751;50.816;-1.214;2023-04-10T00:31:16;101461.42;;;25.77;100.00
47983;BME280;33751;50.816;-1.214;2023-04-10T00:33:43;101454.76;;;25.72;100.00
47983;BME280;33751;50.816;-1.214;2023-04-10T00:36:09;101459.70;;;25.22;100.00
47983;BME280;33751;50.816;-1.214;2023-04-10T00:38:35;101455.70;;;25.52;100.00
47983;BME280;33751;50.816;-1.214;2023-04-10T00:41:02;101451.43;;;25.35;100.00
47983;BME280;33751;50.816;-1.214;2023-04-10T00:43:30;101450.83;;;25.57;100.00
47983;BME280;33751;50.816;-1.214;2023-04-10T00:45:57;101446.22;;;25.66;100.00
47983;BME280;33751;50.816;-1.214;2023-04-10T00:48:25;101444.33;;;26.00;100.00
47983;BME280;33751;50.816;-1.214;2023-04-10T00:50:51;101446.33;;;25.57;100.00
47983;BME280;33751;50.816;-1.214;2023-04-10T00:53:19;101439.18;;;25.67;100.00
47983;BME280;33751;50.816;-1.214;2023-04-10T00:55:48;101437.14;;;25.36;100.00
47983;BME280;33751;50.816;-1.214;2023-04-10T00:58:15;101435.15;;;25.39;100.00
47983;BME280;33751;50.816;-1.214;2023-04-10T01:00:42;101437.83;;;25.75;100.00
47983;BME280;33751;50.816;-1.214;2023-04-10T01:03:09;101432.01;;;25.46;100.00
47983;BME280;33751;50.816;-1.214;2023-04-10T01:05:43;101431.00;;;25.63;100.00
47983;BME280;33751;50.816;-1.214;2023-04-10T01:08:25;101424.58;;;25.37;100.00
47983;BME280;33751;50.816;-1.214;2023-04-10T01:11:03;101420.54;;;25.32;100.00
47983;BME280;33751;50.816;-1.214;2023-04-10T01:13:35;101414.36;;;25.57;100.00
47983;BME280;33751;50.816;-1.214;2023-04-10T01:16:11;101408.94;;;25.36;100.00
47983;BME280;33751;50.816;-1.214;2023-04-10T01:18:45;101409.24;;;25.53;100.00
47983;BME280;33751;50.816;-1.214;2023-04-10T01:21:15;101403.20;;;25.50;100.00
47983;BME280;33751;50.816;-1.214;2023-04-10T01:24:22;101398.26;;;25.68;100.00
47983;BME280;33751;50.816;-1.214;2023-04-10T01:27:03;101393.89;;;25.59;100.00
47983;BME280;33751;50.816;-1.214;2023-04-10T01:29:35;101385.78;;;25.54;100.00
47983;BME280;33751;50.816;-1.214;2023-04-10T01:32:10;101381.47;;;25.31;100.00
47983;BME280;33751;50.816;-1.214;2023-04-10T01:34:41;101379.93;;;25.66;100.00
47983;BME280;33751;50.816;-1.214;2023-04-10T01:37:13;101381.30;;;25.53;100.00
47983;BME280;33751;50.816;-1.214;2023-04-10T01:39:42;101377.44;;;25.44;100.00
47983;BME280;33751;50.816;-1.214;2023-04-10T01:42:10;101374.16;;;25.46;100.00
47983;BME280;33751;50.816;-1.214;2023-04-10T01:44:41;101368.16;;;25.49;100.00
47983;BME280;33751;50.816;-1.214;2023-04-10T01:47:08;101365.26;;;25.53;100.00
47983;BME280;33751;50.816;-1.214;2023-04-10T01:49:37;101362.56;;;25.51;100.00
47983;BME280;33751;50.816;-1.214;2023-04-10T01:52:06;101357.29;;;25.23;100.00
47983;BME280;33751;50.816;-1.214;2023-04-10T01:54:33;101350.99;;;25.39;100.00
47983;BME280;33751;50.816;-1.214;2023-04-10T01:57:03;101344.85;;;25.36;100.00
47983;BME280;33751;50.816;-1.214;2023-04-10T01:59:30;101339.51;;;25.46;100.00
47983;BME280;33751;50.816;-1.214;2023-04-10T02:01:58;101336.13;;;25.37;100.00
47983;BME280;33751;50.816;-1.214;2023-04-10T02:04:26;101333.80;;;25.37;100.00
47983;BME280;33751;50.816;-1.214;2023-04-10T02:07:01;101331.14;;;25.45;100.00
47983;BME280;33751;50.816;-1.214;2023-04-10T02:09:33;101323.59;;;25.17;100.00
47983;BME280;33751;50.816;-1.214;2023-04-10T02:12:05;101330.83;;;25.38;100.00
47983;BME280;33751;50.816;-1.214;2023-04-10T02:14:35;101329.34;;;25.36;100.00
47983;BME280;33751;50.816;-1.214;2023-04-10T02:17:05;101328.39;;;25.16;100.00
47983;BME280;33751;50.816;-1.214;2023-04-10T02:19:34;101330.39;;;25.32;100.00
47983;BME280;33751;50.816;-1.214;2023-04-10T02:22:03;101328.85;;;25.29;100.00
47983;BME280;33751;50.816;-1.214;2023-04-10T02:24:32;101319.74;;;25.21;100.00
47983;BME280;33751;50.816;-1.214;2023-04-10T02:26:59;101316.61;;;25.28;100.00
47983;BME280;33751;50.816;-1.214;2023-04-10T02:29:26;101310.87;;;24.74;100.00
47983;BME280;33751;50.816;-1.214;2023-04-10T02:31:53;101305.93;;;24.90;100.00
47983;BME280;33751;50.816;-1.214;2023-04-10T02:34:19;101306.00;;;25.17;100.00
47983;BME280;33751;50.816;-1.214;2023-04-10T02:36:46;101307.33;;;25.06;100.00
47983;BME280;33751;50.816;-1.214;2023-04-10T02:39:13;101304.79;;;25.13;100.00
47983;BME280;33751;50.816;-1.214;2023-04-10T02:41:39;101304.34;;;25.15;100.00
47983;BME280;33751;50.816;-1.214;2023-04-10T02:44:06;101305.06;;;25.25;100.00
47983;BME280;33751;50.816;-1.214;2023-04-10T02:46:32;101298.56;;;25.31;100.00
47983;BME280;33751;50.816;-1.214;2023-04-10T02:48:59;101295.56;;;25.18;100.00
47983;BME280;33751;50.816;-1.214;2023-04-10T02:51:26;101298.36;;;25.09;100.00
47983;BME280;33751;50.816;-1.214;2023-04-10T02:53:53;101293.67;;;25.04;100.00
47983;BME280;33751;50.816;-1.214;2023-04-10T02:56:20;101292.14;;;24.66;100.00
47983;BME280;33751;50.816;-1.214;2023-04-10T02:58:47;101290.45;;;25.28;100.00
47983;BME280;33751;50.816;-1.214;2023-04-10T03:01:13;101287.61;;;25.06;100.00
47983;BME280;33751;50.816;-1.214;2023-04-10T03:03:46;101282.96;;;25.13;100.00
47983;BME280;33751;50.816;-1.214;2023-04-10T03:06:12;101280.63;;;25.12;100.00
47983;BME280;33751;50.816;-1.214;2023-04-10T03:08:39;101282.96;;;25.05;100.00
47983;BME280;33751;50.816;-1.214;2023-04-10T03:11:07;101281.40;;;25.09;100.00
47983;BME280;33751;50.816;-1.214;2023-04-10T03:13:34;101281.16;;;25.09;100.00
47983;BME280;33751;50.816;-1.214;2023-04-10T03:16:00;101271.13;;;25.13;100.00
47983;BME280;33751;50.816;-1.214;2023-04-10T03:18:27;101272.42;;;25.07;100.00
47983;BME280;33751;50.816;-1.214;2023-04-10T03:20:54;101273.69;;;24.91;100.00
47983;BME280;33751;50.816;-1.214;2023-04-10T03:23:21;101274.06;;;24.61;100.00
47983;BME280;33751;50.816;-1.214;2023-04-10T03:25:49;101274.32;;;24.79;100.00
47983;BME280;33751;50.816;-1.214;2023-04-10T03:28:15;101276.36;;;24.67;100.00
47983;BME280;33751;50.816;-1.214;2023-04-10T03:30:42;101276.19;;;24.81;100.00
47983;BME280;33751;50.816;-1.214;2023-04-10T03:33:08;101274.85;;;24.98;100.00
47983;BME280;33751;50.816;-1.214;2023-04-10T03:35:35;101271.04;;;25.16;100.00
47983;BME280;33751;50.816;-1.214;2023-04-10T03:38:01;101265.51;;;24.94;100.00
47983;BME280;33751;50.816;-1.214;2023-04-10T03:40:28;101272.76;;;24.78;100.00
47983;BME280;33751;50.816;-1.214;2023-04-10T03:42:54;101274.36;;;24.92;100.00
47983;BME280;33751;50.816;-1.214;2023-04-10T03:45:21;101276.32;;;24.81;100.00
47983;BME280;33751;50.816;-1.214;2023-04-10T03:47:47;101279.61;;;24.73;100.00
47983;BME280;33751;50.816;-1.214;2023-04-10T03:50:14;101269.63;;;24.70;100.00
47983;BME280;33751;50.816;-1.214;2023-04-10T03:52:41;101266.98;;;24.73;100.00
47983;BME280;33751;50.816;-1.214;2023-04-10T03:55:07;101266.76;;;24.70;100.00
47983;BME280;33751;50.816;-1.214;2023-04-10T03:57:34;101263.26;;;24.69;100.00
47983;BME280;33751;50.816;-1.214;2023-04-10T04:00:01;101262.70;;;24.76;100.00
47983;BME280;33751;50.816;-1.214;2023-04-10T04:02:28;101262.18;;;24.77;100.00
47983;BME280;33751;50.816;-1.214;2023-04-10T04:04:55;101259.34;;;24.74;100.00
47983;BME280;33751;50.816;-1.214;2023-04-10T04:07:22;101255.55;;;24.93;100.00
47983;BME280;33751;50.816;-1.214;2023-04-10T04:09:49;101249.82;;;25.14;100.00
47983;BME280;33751;50.816;-1.214;2023-04-10T04:12:15;101248.44;;;24.75;100.00
47983;BME280;33751;50.816;-1.214;2023-04-10T04:14:42;101239.68;;;24.77;100.00
47983;BME280;33751;50.816;-1.214;2023-04-10T04:17:09;101235.48;;;24.79;100.00
47983;BME280;33751;50.816;-1.214;2023-04-10T04:19:35;101229.45;;;24.68;100.00
47983;BME280;33751;50.816;-1.214;2023-04-10T04:22:02;101227.86;;;24.91;100.00
47983;BME280;33751;50.816;-1.214;2023-04-10T04:24:28;101224.62;;;24.68;100.00
47983;BME280;33751;50.816;-1.214;2023-04-10T04:26:55;101221.60;;;24.84;100.00
47983;BME280;33751;50.816;-1.214;2023-04-10T04:29:22;101219.34;;;24.75;100.00
47983;BME280;33751;50.816;-1.214;2023-04-10T04:31:49;101214.74;;;24.70;100.00
47983;BME280;33751;50.816;-1.214;2023-04-10T04:34:16;101216.10;;;24.62;100.00
47983;BME280;33751;50.816;-1.214;2023-04-10T04:36:43;101219.57;;;24.37;100.00
47983;BME280;33751;50.816;-1.214;2023-04-10T04:39:10;101214.64;;;24.59;100.00
47983;BME280;33751;50.816;-1.214;2023-04-10T04:41:37;101213.08;;;24.66;100.00
47983;BME280;33751;50.816;-1.214;2023-04-10T04:44:04;101206.22;;;24.74;100.00
47983;BME280;33751;50.816;-1.214;2023-04-10T04:46:31;101199.36;;;24.58;100.00
47983;BME280;33751;50.816;-1.214;2023-04-10T04:48:58;101194.70;;;24.53;100.00
47983;BME280;33751;50.816;-1.214;2023-04-10T04:51:25;101198.23;;;24.61;100.00
47983;BME280;33751;50.816;-1.214;2023-04-10T04:53:52;101196.84;;;24.46;100.00
47983;BME280;33751;50.816;-1.214;2023-04-10T04:56:18;101193.72;;;24.53;100.00
47983;BME280;33751;50.816;-1.214;2023-04-10T04:58:45;101190.46;;;24.69;100.00
47983;BME280;33751;50.816;-1.214;2023-04-10T05:01:12;101187.54;;;24.38;100.00
47983;BME280;33751;50.816;-1.214;2023-04-10T05:03:39;101186.38;;;24.55;100.00
47983;BME280;33751;50.816;-1.214;2023-04-10T05:06:06;101182.27;;;24.49;100.00
47983;BME280;33751;50.816;-1.214;2023-04-10T05:08:33;101182.87;;;24.57;100.00
47983;BME280;33751;50.816;-1.214;2023-04-10T05:11:00;101177.54;;;24.32;100.00
47983;BME280;33751;50.816;-1.214;2023-04-10T05:13:27;101181.29;;;24.55;100.00
47983;BME280;33751;50.816;-1.214;2023-04-10T05:15:53;101178.37;;;24.44;100.00
47983;BME280;33751;50.816;-1.214;2023-04-10T05:18:20;101168.32;;;24.53;100.00
47983;BME280;33751;50.816;-1.214;2023-04-10T05:20:46;101163.48;;;24.53;100.00
47983;BME280;33751;50.816;-1.214;2023-04-10T05:23:13;101165.52;;;24.43;100.00
47983;BME280;33751;50.816;-1.214;2023-04-10T05:25:40;101158.94;;;24.45;100.00
47983;BME280;33751;50.816;-1.214;2023-04-10T05:28:08;101154.93;;;24.52;100.00
47983;BME280;33751;50.816;-1.214;2023-04-10T05:30:34;101151.47;;;24.49;100.00
47983;BME280;33751;50.816;-1.214;2023-04-10T05:33:01;101148.82;;;24.67;100.00
47983;BME280;33751;50.816;-1.214;2023-04-10T05:35:27;101143.06;;;24.73;100.00
47983;BME280;33751;50.816;-1.214;2023-04-10T05:37:55;101143.13;;;24.65;100.00
47983;BME280;33751;50.816;-1.214;2023-04-10T05:40:21;101138.43;;;24.91;100.00
47983;BME280;33751;50.816;-1.214;2023-04-10T05:42:48;101134.01;;;25.06;100.00
47983;BME280;33751;50.816;-1.214;2023-04-10T05:45:14;101125.54;;;24.80;100.00
47983;BME280;33751;50.816;-1.214;2023-04-10T05:47:41;101117.99;;;24.82;100.00
47983;BME280;33751;50.816;-1.214;2023-04-10T05:50:08;101117.27;;;25.01;100.00
47983;BME280;33751;50.816;-1.214;2023-04-10T05:52:35;101112.20;;;25.09;100.00
47983;BME280;33751;50.816;-1.214;2023-04-10T05:55:02;101112.04;;;25.51;100.00
47983;BME280;33751;50.816;-1.214;2023-04-10T05:57:30;101112.87;;;25.42;100.00
47983;BME280;33751;50.816;-1.214;2023-04-10T05:59:57;101114.22;;;25.23;100.00
47983;BME280;33751;50.816;-1.214;2023-04-10T06:02:24;101114.79;;;25.38;100.00
47983;BME280;33751;50.816;-1.214;2023-04-10T06:04:50;101109.48;;;25.42;100.00
47983;BME280;33751;50.816;-1.214;2023-04-10T06:07:17;101105.97;;;25.55;100.00
47983;BME280;33751;50.816;-1.214;2023-04-10T06:09:43;101097.54;;;25.90;100.00
47983;BME280;33751;50.816;-1.214;2023-04-10T06:12:10;101092.31;;;25.33;100.00
47983;BME280;33751;50.816;-1.214;2023-04-10T06:14:36;101094.57;;;25.40;100.00
47983;BME280;33751;50.816;-1.214;2023-04-10T06:17:03;101091.57;;;25.35;100.00
47983;BME280;33751;50.816;-1.214;2023-04-10T06:19:30;101090.62;;;25.54;100.00
47983;BME280;33751;50.816;-1.214;2023-04-10T06:21:57;101080.13;;;25.46;100.00
47983;BME280;33751;50.816;-1.214;2023-04-10T06:24:23;101082.73;;;25.27;100.00
47983;BME280;33751;50.816;-1.214;2023-04-10T06:26:49;101073.35;;;25.56;100.00
47983;BME280;33751;50.816;-1.214;2023-04-10T06:29:16;101072.56;;;25.34;100.00
47983;BME280;33751;50.816;-1.214;2023-04-10T06:31:43;101063.29;;;25.20;100.00
47983;BME280;33751;50.816;-1.214;2023-04-10T06:34:09;101064.84;;;25.04;100.00
47983;BME280;33751;50.816;-1.214;2023-04-10T06:36:36;101061.22;;;25.01;100.00
47983;BME280;33751;50.816;-1.214;2023-04-10T06:39:02;101062.21;;;25.20;100.00
47983;BME280;33751;50.816;-1.214;2023-04-10T06:41:28;101064.53;;;25.66;100.00
47983;BME280;33751;50.816;-1.214;2023-04-10T06:43:55;101061.30;;;25.29;100.00
47983;BME280;33751;50.816;-1.214;2023-04-10T06:46:21;101054.77;;;25.14;100.00
47983;BME280;33751;50.816;-1.214;2023-04-10T06:48:48;101051.94;;;25.38;100.00
47983;BME280;33751;50.816;-1.214;2023-04-10T06:51:14;101049.52;;;25.63;100.00
47983;BME280;33751;50.816;-1.214;2023-04-10T06:53:41;101042.32;;;25.62;100.00
47983;BME280;33751;50.816;-1.214;2023-04-10T06:56:08;101045.66;;;25.67;100.00
47983;BME280;33751;50.816;-1.214;2023-04-10T06:58:35;101038.32;;;25.74;100.00
47983;BME280;33751;50.816;-1.214;2023-04-10T07:01:01;101030.63;;;25.42;100.00
47983;BME280;33751;50.816;-1.214;2023-04-10T07:03:28;101023.85;;;25.41;100.00
47983;BME280;33751;50.816;-1.214;2023-04-10T07:05:54;101021.39;;;25.44;100.00
47983;BME280;33751;50.816;-1.214;2023-04-10T07:08:21;101014.33;;;25.65;100.00
47983;BME280;33751;50.816;-1.214;2023-04-10T07:10:47;101017.58;;;25.87;100.00
47983;BME280;33751;50.816;-1.214;2023-04-10T07:13:16;101019.28;;;25.81;100.00
47983;BME280;33751;50.816;-1.214;2023-04-10T07:15:42;101015.84;;;25.64;100.00
47983;BME280;33751;50.816;-1.214;2023-04-10T07:18:09;101017.48;;;25.82;100.00
47983;BME280;33751;50.816;-1.214;2023-04-10T07:20:35;101011.46;;;25.51;100.00
47983;BME280;33751;50.816;-1.214;2023-04-10T07:23:01;101011.68;;;25.71;100.00
47983;BME280;33751;50.816;-1.214;2023-04-10T07:25:28;101012.18;;;25.55;100.00
47983;BME280;33751;50.816;-1.214;2023-04-10T07:27:55;101009.51;;;26.10;100.00
47983;BME280;33751;50.816;-1.214;2023-04-10T07:30:22;101002.44;;;25.71;100.00
47983;BME280;33751;50.816;-1.214;2023-04-10T07:32:48;100999.73;;;25.84;100.00
47983;BME280;33751;50.816;-1.214;2023-04-10T07:35:15;100993.73;;;25.60;100.00
47983;BME280;33751;50.816;-1.214;2023-04-10T07:37:42;100986.51;;;25.96;100.00
47983;BME280;33751;50.816;-1.214;2023-04-10T07:40:09;100982.37;;;25.79;100.00
47983;BME280;33751;50.816;-1.214;2023-04-10T07:42:36;100984.23;;;25.72;100.00
47983;BME280;33751;50.816;-1.214;2023-04-10T07:45:03;100974.28;;;25.54;100.00
47983;BME280;33751;50.816;-1.214;2023-04-10T07:47:30;100969.62;;;25.75;100.00
47983;BME280;33751;50.816;-1.214;2023-04-10T07:49:57;100970.41;;;25.89;100.00
47983;BME280;33751;50.816;-1.214;2023-04-10T07:52:24;100967.67;;;25.88;100.00
47983;BME280;33751;50.816;-1.214;2023-04-10T07:54:50;100970.01;;;25.77;100.00
47983;BME280;33751;50.816;-1.214;2023-04-10T07:57:17;100966.18;;;25.77;100.00
47983;BME280;33751;50.816;-1.214;2023-04-10T07:59:43;100968.40;;;25.77;100.00
47983;BME280;33751;50.816;-1.214;2023-04-10T08:02:10;100964.69;;;25.80;100.00
47983;BME280;33751;50.816;-1.214;2023-04-10T08:04:37;100964.56;;;25.89;100.00
47983;BME280;33751;50.816;-1.214;2023-04-10T08:07:04;100956.68;;;25.88;100.00
47983;BME280;33751;50.816;-1.214;2023-04-10T08:09:30;100955.93;;;26.23;100.00
47983;BME280;33751;50.816;-1.214;2023-04-10T08:11:57;100953.37;;;26.10;100.00
47983;BME280;33751;50.816;-1.214;2023-04-10T08:14:24;100947.75;;;26.25;100.00
47983;BME280;33751;50.816;-1.214;2023-04-10T08:16:50;100943.82;;;25.99;100.00
47983;BME280;33751;50.816;-1.214;2023-04-10T08:19:17;100944.65;;;26.09;100.00
47983;BME280;33751;50.816;-1.214;2023-04-10T08:21:43;100939.08;;;26.34;100.00
47983;BME280;33751;50.816;-1.214;2023-04-10T08:24:10;100942.54;;;26.04;100.00
47983;BME280;33751;50.816;-1.214;2023-04-10T08:26:36;100940.34;;;26.18;100.00
47983;BME280;33751;50.816;-1.214;2023-04-10T08:29:05;100936.47;;;26.05;100.00
47983;BME280;33751;50.816;-1.214;2023-04-10T08:31:32;100934.85;;;26.34;100.00
47983;BME280;33751;50.816;-1.214;2023-04-10T08:33:58;100933.58;;;26.31;100.00
47983;BME280;33751;50.816;-1.214;2023-04-10T08:36:26;100933.83;;;26.05;100.00
47983;BME280;33751;50.816;-1.214;2023-04-10T08:38:53;100935.26;;;25.89;100.00
47983;BME280;33751;50.816;-1.214;2023-04-10T08:41:20;100929.59;;;26.26;100.00
47983;BME280;33751;50.816;-1.214;2023-04-10T08:43:47;100935.70;;;26.11;100.00
47983;BME280;33751;50.816;-1.214;2023-04-10T08:46:14;100923.41;;;26.55;100.00
47983;BME280;33751;50.816;-1.214;2023-04-10T08:48:46;100922.10;;;26.21;100.00
47983;BME280;33751;50.816;-1.214;2023-04-10T08:51:17;100921.80;;;25.85;100.00
47983;BME280;33751;50.816;-1.214;2023-04-10T08:53:44;100922.46;;;26.13;100.00
47983;BME280;33751;50.816;-1.214;2023-04-10T08:56:12;100926.69;;;25.91;100.00
47983;BME280;33751;50.816;-1.214;2023-04-10T08:58:41;100926.02;;;25.77;100.00
47983;BME280;33751;50.816;-1.214;2023-04-10T09:01:09;100926.82;;;25.33;100.00
47983;BME280;33751;50.816;-1.214;2023-04-10T09:03:37;100925.91;;;25.64;100.00
47983;BME280;33751;50.816;-1.214;2023-04-10T09:06:04;100930.94;;;25.27;100.00
47983;BME280;33751;50.816;-1.214;2023-04-10T09:08:32;100927.44;;;25.27;100.00
47983;BME280;33751;50.816;-1.214;2023-04-10T09:10:59;100933.30;;;25.49;100.00
47983;BME280;33751;50.816;-1.214;2023-04-10T09:13:35;100932.92;;;25.61;100.00
47983;BME280;33751;50.816;-1.214;2023-04-10T09:16:03;100938.96;;;25.90;100.00
47983;BME280;33751;50.816;-1.214;2023-04-10T09:18:42;100929.08;;;25.50;100.00
47983;BME280;33751;50.816;-1.214;2023-04-10T09:21:09;100922.73;;;25.44;100.00
47983;BME280;33751;50.816;-1.214;2023-04-10T09:23:36;100925.23;;;25.79;100.00
47983;BME280;33751;50.816;-1.214;2023-04-10T09:26:08;100919.78;;;25.87;100.00
47983;BME280;33751;50.816;-1.214;2023-04-10T09:28:55;100917.20;;;26.27;100.00
47983;BME280;33751;50.816;-1.214;2023-04-10T09:31:28;100911.63;;;25.99;100.00
47983;BME280;33751;50.816;-1.214;2023-04-10T09:34:07;100927.76;;;26.35;100.00
47983;BME280;33751;50.816;-1.214;2023-04-10T09:36:34;100923.24;;;25.84;100.00
47983;BME280;33751;50.816;-1.214;2023-04-10T09:39:02;100914.51;;;26.09;100.00
47983;BME280;33751;50.816;-1.214;2023-04-10T09:41:30;100915.80;;;25.88;100.00
47983;BME280;33751;50.816;-1.214;2023-04-10T09:44:12;100908.30;;;26.19;100.00
47983;BME280;33751;50.816;-1.214;2023-04-10T09:46:39;100907.15;;;26.27;100.00
47983;BME280;33751;50.816;-1.214;2023-04-10T09:49:06;100903.70;;;26.07;100.00
47983;BME280;33751;50.816;-1.214;2023-04-10T09:51:33;100907.93;;;26.24;100.00
47983;BME280;33751;50.816;-1.214;2023-04-10T09:54:01;100908.55;;;26.33;100.00
47983;BME280;33751;50.816;-1.214;2023-04-10T09:56:29;100909.71;;;26.05;100.00
47983;BME280;33751;50.816;-1.214;2023-04-10T09:58:58;100902.89;;;26.17;100.00
47983;BME280;33751;50.816;-1.214;2023-04-10T10:01:26;100885.10;;;26.26;100.00
47983;BME280;33751;50.816;-1.214;2023-04-10T10:03:54;100875.56;;;26.36;100.00
47983;BME280;33751;50.816;-1.214;2023-04-10T10:06:21;100867.22;;;26.22;100.00
47983;BME280;33751;50.816;-1.214;2023-04-10T10:08:48;100857.98;;;26.56;100.00
47983;BME280;33751;50.816;-1.214;2023-04-10T10:11:18;100859.31;;;26.39;100.00
47983;BME280;33751;50.816;-1.214;2023-04-10T10:13:48;100854.23;;;26.78;100.00
47983;BME280;33751;50.816;-1.214;2023-04-10T10:16:20;100862.64;;;26.50;100.00
47983;BME280;33751;50.816;-1.214;2023-04-10T10:18:54;100863.89;;;26.81;100.00
47983;BME280;33751;50.816;-1.214;2023-04-10T10:21:25;100865.09;;;26.74;100.00
47983;BME280;33751;50.816;-1.214;2023-04-10T10:23:55;100862.40;;;26.45;100.00
47983;BME280;33751;50.816;-1.214;2023-04-10T10:26:24;100871.00;;;26.54;100.00
47983;BME280;33751;50.816;-1.214;2023-04-10T10:28:51;100877.36;;;26.61;100.00
47983;BME280;33751;50.816;-1.214;2023-04-10T10:31:20;100876.69;;;26.29;100.00
47983;BME280;33751;50.816;-1.214;2023-04-10T10:33:47;100864.89;;;26.23;100.00
47983;BME280;33751;50.816;-1.214;2023-04-10T10:36:14;100868.50;;;26.22;100.00
47983;BME280;33751;50.816;-1.214;2023-04-10T10:38:49;100869.74;;;26.56;100.00
47983;BME280;33751;50.816;-1.214;2023-04-10T10:41:24;100866.90;;;26.82;100.00
47983;BME280;33751;50.816;-1.214;2023-04-10T10:43:58;100871.36;;;27.09;100.00
47983;BME280;33751;50.816;-1.214;2023-04-10T10:46:33;100865.39;;;26.71;100.00
47983;BME280;33751;50.816;-1.214;2023-04-10T10:49:01;100862.49;;;26.88;100.00
47983;BME280;33751;50.816;-1.214;2023-04-10T10:51:42;100863.77;;;26.86;100.00
47983;BME280;33751;50.816;-1.214;2023-04-10T10:54:26;100854.33;;;27.08;100.00
47983;BME280;33751;50.816;-1.214;2023-04-10T10:56:54;100846.23;;;27.48;100.00
47983;BME280;33751;50.816;-1.214;2023-04-10T10:59:53;100849.19;;;27.34;100.00
47983;BME280;33751;50.816;-1.214;2023-04-10T11:02:20;100849.35;;;27.23;100.00
47983;BME280;33751;50.816;-1.214;2023-04-10T11:04:48;100852.05;;;27.11;100.00
47983;BME280;33751;50.816;-1.214;2023-04-10T11:07:15;100857.64;;;27.38;100.00
47983;BME280;33751;50.816;-1.214;2023-04-10T11:09:45;100859.35;;;27.32;100.00
47983;BME280;33751;50.816;-1.214;2023-04-10T11:12:12;100855.12;;;27.19;100.00
47983;BME280;33751;50.816;-1.214;2023-04-10T11:14:41;100859.55;;;27.19;100.00
47983;BME280;33751;50.816;-1.214;2023-04-10T11:17:09;100863.27;;;27.43;100.00
47983;BME280;33751;50.816;-1.214;2023-04-10T11:20:09;100867.02;;;27.99;100.00
47983;BME280;33751;50.816;-1.214;2023-04-10T11:23:06;100877.50;;;27.55;100.00
47983;BME280;33751;50.816;-1.214;2023-04-10T11:25:49;100864.80;;;27.84;100.00
47983;BME280;33751;50.816;-1.214;2023-04-10T11:28:49;100857.39;;;28.28;100.00
47983;BME280;33751;50.816;-1.214;2023-04-10T11:31:17;100856.55;;;27.84;100.00
47983;BME280;33751;50.816;-1.214;2023-04-10T11:33:45;100850.76;;;27.98;100.00
47983;BME280;33751;50.816;-1.214;2023-04-10T11:36:13;100849.86;;;28.10;100.00
47983;BME280;33751;50.816;-1.214;2023-04-10T11:38:40;100842.96;;;27.96;100.00
47983;BME280;33751;50.816;-1.214;2023-04-10T11:41:19;100846.98;;;27.99;100.00
47983;BME280;33751;50.816;-1.214;2023-04-10T11:43:50;100849.28;;;28.03;100.00
47983;BME280;33751;50.816;-1.214;2023-04-10T11:46:17;100843.72;;;28.00;100.00
47983;BME280;33751;50.816;-1.214;2023-04-10T11:48:44;100844.54;;;28.07;100.00
47983;BME280;33751;50.816;-1.214;2023-04-10T11:51:13;100851.73;;;27.37;100.00
47983;BME280;33751;50.816;-1.214;2023-04-10T11:53:40;100859.76;;;27.81;100.00
47983;BME280;33751;50.816;-1.214;2023-04-10T11:56:15;100869.82;;;27.71;100.00
47983;BME280;33751;50.816;-1.214;2023-04-10T11:58:42;100854.59;;;27.81;100.00
47983;BME280;33751;50.816;-1.214;2023-04-10T12:01:08;100870.59;;;27.57;100.00
47983;BME280;33751;50.816;-1.214;2023-04-10T12:03:37;100881.47;;;27.86;100.00
47983;BME280;33751;50.816;-1.214;2023-04-10T12:06:07;100875.00;;;28.23;100.00
47983;BME280;33751;50.816;-1.214;2023-04-10T12:08:36;100875.27;;;27.58;100.00
47983;BME280;33751;50.816;-1.214;2023-04-10T12:11:04;100874.54;;;27.61;100.00
47983;BME280;33751;50.816;-1.214;2023-04-10T12:13:31;100871.31;;;27.38;100.00
47983;BME280;33751;50.816;-1.214;2023-04-10T12:16:00;100875.37;;;27.00;100.00
47983;BME280;33751;50.816;-1.214;2023-04-10T12:18:28;100870.46;;;27.17;100.00
47983;BME280;33751;50.816;-1.214;2023-04-10T12:20:56;100867.76;;;26.72;100.00
47983;BME280;33751;50.816;-1.214;2023-04-10T12:23:23;100865.95;;;26.48;100.00
47983;BME280;33751;50.816;-1.214;2023-04-10T12:25:50;100862.69;;;26.87;100.00
47983;BME280;33751;50.816;-1.214;2023-04-10T12:28:19;100878.57;;;27.29;100.00
47983;BME280;33751;50.816;-1.214;2023-04-10T12:30:48;100877.56;;;27.21;100.00
47983;BME280;33751;50.816;-1.214;2023-04-10T12:33:20;100883.19;;;26.78;100.00
47983;BME280;33751;50.816;-1.214;2023-04-10T12:35:47;100884.31;;;27.18;100.00
47983;BME280;33751;50.816;-1.214;2023-04-10T12:38:14;100887.56;;;27.12;100.00